Time;durP1;ratioP1;P1;durP2;ratioP2;P2;SDS_P1;SDS_P2;PMS_P1;PMS_P2;Temp;Humidity;BMP_temperature;BMP_pressure;BME280_temperature;BME280_humidity;BME280_pressure;Samples;Min_cycle;Max_cycle;Signal;HPM_P1;HPM_P2
2021/10/09 00:00:49;;;;;;;25.35;18.83;;;12.90;99.90;;;;;;4983251;28;20157;-39
2021/10/09 00:03:14;;;;;;;25.50;20.77;;;12.90;99.90;;;;;;4979052;28;20031;-38
2021/10/09 00:05:39;;;;;;;23.85;18.65;;;12.80;99.90;;;;;;4984888;28;20053;-40
2021/10/09 00:08:12;;;;;;;25.27;20.15;;;12.80;99.90;;;;;;4976196;28;20038;-39
2021/10/09 00:10:37;;;;;;;28.13;22.77;;;12.80;99.90;;;;;;4985793;28;20026;-37
2021/10/09 00:13:03;;;;;;;25.70;21.17;;;12.80;99.90;;;;;;4976331;28;20113;-38
2021/10/09 00:15:28;;;;;;;26.80;20.67;;;12.70;99.90;;;;;;4987182;28;20117;-38
2021/10/09 00:17:54;;;;;;;28.08;21.48;;;12.80;99.90;;;;;;4975503;28;20025;-38
2021/10/09 00:20:19;;;;;;;28.58;21.02;;;12.70;99.90;;;;;;4986940;28;20125;-39
2021/10/09 00:22:45;;;;;;;23.98;18.02;;;12.70;99.90;;;;;;4974607;28;20125;-40
2021/10/09 00:25:11;;;;;;;26.00;19.75;;;12.80;99.90;;;;;;4987459;28;20074;-38
2021/10/09 00:27:37;;;;;;;26.40;20.63;;;12.70;99.90;;;;;;4975699;28;20440;-41
2021/10/09 00:30:05;;;;;;;26.52;20.20;;;12.70;99.90;;;;;;4988586;28;20393;-39
2021/10/09 00:32:30;;;;;;;24.55;18.70;;;12.70;99.90;;;;;;4981537;28;20481;-40
2021/10/09 00:34:56;;;;;;;25.00;19.80;;;12.70;99.90;;;;;;4977389;28;20027;-41
2021/10/09 00:37:21;;;;;;;27.50;21.00;;;12.60;99.90;;;;;;4977592;28;20033;-38
2021/10/09 00:39:47;;;;;;;27.23;20.65;;;12.60;99.90;;;;;;4977430;28;20504;-39
2021/10/09 00:42:12;;;;;;;27.45;20.92;;;12.60;99.90;;;;;;4974947;28;20034;-38
2021/10/09 00:44:38;;;;;;;27.45;20.83;;;12.60;99.90;;;;;;4979215;28;20042;-40
2021/10/09 00:47:04;;;;;;;26.92;19.95;;;12.60;99.90;;;;;;4972039;28;20043;-39
2021/10/09 00:49:31;;;;;;;26.00;21.27;;;12.60;99.90;;;;;;4980670;28;20077;-39
2021/10/09 00:51:58;;;;;;;27.23;20.40;;;12.60;99.90;;;;;;4972263;28;20114;-38
2021/10/09 00:54:25;;;;;;;24.98;18.63;;;12.60;99.90;;;;;;4981870;28;20109;-40
2021/10/09 00:56:53;;;;;;;26.30;19.60;;;12.50;99.90;;;;;;4970572;28;20038;-38
2021/10/09 00:59:22;;;;;;;28.83;21.15;;;12.50;99.90;;;;;;4978326;28;20030;-41
2021/10/09 01:01:48;;;;;;;26.70;20.42;;;12.50;99.90;;;;;;4990120;28;20038;-38
2021/10/09 01:04:15;;;;;;;25.67;20.27;;;12.50;99.90;;;;;;4977518;28;20054;-38
2021/10/09 01:06:40;;;;;;;27.00;20.77;;;12.50;99.90;;;;;;4990281;28;20065;-41
2021/10/09 01:09:06;;;;;;;26.33;21.45;;;12.50;99.90;;;;;;4979029;28;20034;-38
2021/10/09 01:11:31;;;;;;;27.80;20.38;;;12.50;99.90;;;;;;4989267;28;20080;-43
2021/10/09 01:13:57;;;;;;;27.42;22.33;;;12.40;99.90;;;;;;4981657;28;20019;-41
2021/10/09 01:16:25;;;;;;;31.73;23.65;;;12.40;99.90;;;;;;4986432;28;20026;-39
2021/10/09 01:18:53;;;;;;;25.20;20.00;;;12.40;99.90;;;;;;4983325;28;20015;-39
2021/10/09 01:21:20;;;;;;;25.67;20.23;;;12.40;99.90;;;;;;4985607;28;20041;-39
2021/10/09 01:23:46;;;;;;;30.00;22.25;;;12.40;99.90;;;;;;4983889;28;20492;-43
2021/10/09 01:26:13;;;;;;;28.00;21.58;;;12.30;99.90;;;;;;4983283;28;20389;-45
2021/10/09 01:28:41;;;;;;;27.17;22.13;;;12.40;99.90;;;;;;4987115;28;20562;-37
2021/10/09 01:31:07;;;;;;;27.75;22.17;;;12.30;99.90;;;;;;4979773;28;20034;-38
2021/10/09 01:33:32;;;;;;;28.67;21.88;;;12.30;99.90;;;;;;4988506;28;20025;-39
2021/10/09 01:35:58;;;;;;;28.08;20.50;;;12.30;99.90;;;;;;4989869;28;20034;-37
2021/10/09 01:38:26;;;;;;;27.25;20.92;;;12.20;99.90;;;;;;4986242;28;20026;-38
2021/10/09 01:40:53;;;;;;;25.80;20.50;;;12.30;99.90;;;;;;4980359;28;20026;-38
2021/10/09 01:43:20;;;;;;;28.42;21.60;;;12.20;99.90;;;;;;4970926;28;20046;-38
2021/10/09 01:45:47;;;;;;;27.48;22.08;;;12.20;99.90;;;;;;4976583;28;20109;-40
2021/10/09 01:48:13;;;;;;;31.45;22.02;;;12.20;99.90;;;;;;4990134;28;20069;-39
2021/10/09 01:50:40;;;;;;;28.73;22.48;;;12.10;99.90;;;;;;4977299;28;20073;-39
2021/10/09 01:53:07;;;;;;;27.92;22.77;;;12.10;99.90;;;;;;4989779;28;20042;-38
2021/10/09 01:55:34;;;;;;;28.33;22.25;;;12.10;99.90;;;;;;4978403;28;20027;-41
2021/10/09 01:58:00;;;;;;;28.23;21.27;;;12.10;99.90;;;;;;4989032;28;20038;-40
2021/10/09 02:00:26;;;;;;;28.90;21.67;;;12.00;99.90;;;;;;4979939;28;20025;-38
2021/10/09 02:02:53;;;;;;;24.13;19.50;;;12.00;99.90;;;;;;4986513;28;20046;-41
2021/10/09 02:05:19;;;;;;;28.55;22.17;;;12.00;99.90;;;;;;4983390;28;20046;-38
2021/10/09 02:07:44;;;;;;;30.08;22.85;;;12.00;99.90;;;;;;4982292;28;20104;-39
2021/10/09 02:10:14;;;;;;;29.77;24.27;;;12.00;99.90;;;;;;4986059;28;20105;-39
2021/10/09 02:12:39;;;;;;;30.92;23.98;;;11.90;99.90;;;;;;4980685;28;20054;-39
2021/10/09 02:15:12;;;;;;;33.08;24.52;;;11.90;99.90;;;;;;4987444;28;20484;-40
2021/10/09 02:18:00;;;;;;;32.83;23.40;;;11.90;99.90;;;;;;4979522;28;20096;-39
2021/10/09 02:25:47;;;;;;;30.98;23.98;;;11.80;99.90;;;;;;4984409;28;20117;-40
2021/10/09 02:28:17;;;;;;;38.67;26.25;;;11.80;99.90;;;;;;4980960;28;20469;-39
2021/10/09 02:30:43;;;;;;;32.83;25.00;;;11.70;99.90;;;;;;4986239;28;20030;-38
2021/10/09 02:33:10;;;;;;;33.42;23.67;;;11.70;99.90;;;;;;4979335;28;20033;-42
2021/10/09 02:35:36;;;;;;;29.05;22.67;;;11.70;99.90;;;;;;4975819;28;20030;-39
2021/10/09 02:38:03;;;;;;;33.38;24.75;;;11.70;99.90;;;;;;4980534;28;20023;-38
2021/10/09 02:40:29;;;;;;;36.47;27.25;;;11.70;99.90;;;;;;4970326;28;20082;-38
2021/10/09 02:42:55;;;;;;;34.05;25.30;;;11.60;99.90;;;;;;4979854;28;20038;-38
2021/10/09 02:45:20;;;;;;;33.85;25.65;;;11.60;99.90;;;;;;4969235;28;20033;-38
2021/10/09 02:47:46;;;;;;;37.72;25.15;;;11.60;99.90;;;;;;4980421;28;20055;-39
2021/10/09 02:50:14;;;;;;;35.80;26.40;;;11.60;99.90;;;;;;4970258;28;20031;-38
2021/10/09 02:52:42;;;;;;;30.88;24.42;;;11.50;99.90;;;;;;4980676;28;20019;-39
2021/10/09 02:55:09;;;;;;;32.22;23.15;;;11.50;99.90;;;;;;4968910;28;20089;-38
2021/10/09 02:57:37;;;;;;;32.67;23.88;;;11.50;99.90;;;;;;4979082;28;20022;-39
2021/10/09 03:00:06;;;;;;;26.92;20.52;;;11.50;99.90;;;;;;4970761;28;20105;-40
2021/10/09 03:02:34;;;;;;;31.55;23.02;;;11.50;99.90;;;;;;4976879;28;20118;-39
2021/10/09 03:05:00;;;;;;;32.42;22.77;;;11.40;99.90;;;;;;4972816;28;20490;-38
2021/10/09 03:07:26;;;;;;;31.30;23.33;;;11.40;99.90;;;;;;4975032;28;20026;-38
2021/10/09 03:09:51;;;;;;;35.00;26.65;;;11.40;99.90;;;;;;4973813;28;20039;-38
2021/10/09 03:12:17;;;;;;;32.92;23.42;;;11.40;99.90;;;;;;4973425;28;20047;-38
2021/10/09 03:14:42;;;;;;;32.17;23.45;;;11.40;99.90;;;;;;4979962;28;20033;-38
2021/10/09 03:17:08;;;;;;;32.60;25.02;;;11.30;99.90;;;;;;4986489;28;20034;-39
2021/10/09 03:19:33;;;;;;;29.17;23.40;;;11.30;99.90;;;;;;4977554;28;20041;-38
2021/10/09 03:21:59;;;;;;;31.95;24.42;;;11.30;99.90;;;;;;4986499;28;20011;-38
2021/10/09 03:24:24;;;;;;;31.40;23.38;;;11.30;99.90;;;;;;4976703;28;20062;-39
2021/10/09 03:26:50;;;;;;;29.85;22.80;;;11.30;99.90;;;;;;4988011;28;20031;-38
2021/10/09 03:29:15;;;;;;;31.90;22.70;;;11.20;99.90;;;;;;4976041;28;20022;-38
2021/10/09 03:31:43;;;;;;;32.17;23.67;;;11.20;99.90;;;;;;4987422;28;20026;-38
2021/10/09 03:34:09;;;;;;;30.85;23.35;;;11.20;99.90;;;;;;4974661;28;20074;-39
2021/10/09 03:36:34;;;;;;;36.35;26.08;;;11.20;99.90;;;;;;4967958;28;20450;-39
2021/10/09 03:39:00;;;;;;;32.15;24.98;;;11.20;99.90;;;;;;4978735;28;20090;-38
2021/10/09 03:41:26;;;;;;;33.22;25.60;;;11.20;99.90;;;;;;4969587;28;20081;-38
2021/10/09 03:43:51;;;;;;;34.78;25.65;;;11.10;99.90;;;;;;4977150;28;20713;-38
2021/10/09 03:46:28;;;;;;;33.45;25.25;;;11.10;99.90;;;;;;4971735;28;20081;-39
2021/10/09 03:54:06;;;;;;;32.22;24.67;;;11.00;99.90;;;;;;4976416;28;20496;-38
2021/10/09 03:56:31;;;;;;;33.78;24.98;;;11.00;99.90;;;;;;4972532;28;20011;-40
2021/10/09 03:58:57;;;;;;;32.00;23.90;;;11.00;99.90;;;;;;4973059;28;20800;-39
2021/10/09 04:01:22;;;;;;;34.67;25.55;;;11.00;99.90;;;;;;4975769;28;20471;-41
2021/10/09 04:03:48;;;;;;;35.15;25.27;;;10.90;99.90;;;;;;4970243;28;20058;-38
2021/10/09 04:06:13;;;;;;;33.67;25.30;;;10.90;99.90;;;;;;4982009;28;20023;-39
2021/10/09 04:08:39;;;;;;;32.65;24.60;;;10.90;99.90;;;;;;4973267;28;20023;-37
2021/10/09 04:11:05;;;;;;;33.17;24.38;;;10.90;99.90;;;;;;4983087;28;20107;-38
2021/10/09 04:13:30;;;;;;;33.03;24.60;;;10.90;99.90;;;;;;4972307;28;20030;-39
2021/10/09 04:15:56;;;;;;;33.08;24.52;;;10.80;99.90;;;;;;4983681;28;20110;-38
2021/10/09 04:18:21;;;;;;;31.33;23.85;;;10.80;99.90;;;;;;4972443;28;20078;-38
2021/10/09 04:20:47;;;;;;;33.85;24.33;;;10.80;99.90;;;;;;4983008;28;20045;-38
2021/10/09 04:23:12;;;;;;;33.53;24.52;;;10.80;99.90;;;;;;4972268;28;20035;-39
2021/10/09 04:25:38;;;;;;;32.17;24.63;;;10.80;99.90;;;;;;4982739;28;20038;-39
2021/10/09 04:28:04;;;;;;;31.90;24.38;;;10.70;99.90;;;;;;4972201;28;20034;-39
2021/10/09 04:30:30;;;;;;;35.05;24.88;;;10.70;99.90;;;;;;4980251;28;20034;-40
2021/10/09 04:32:55;;;;;;;35.60;25.13;;;10.70;99.90;;;;;;4975296;28;20030;-39
2021/10/09 04:35:21;;;;;;;33.45;24.92;;;10.70;99.90;;;;;;4977554;28;20485;-38
2021/10/09 04:37:46;;;;;;;34.92;26.00;;;10.70;99.90;;;;;;4977060;28;20129;-38
2021/10/09 04:40:12;;;;;;;36.55;25.58;;;10.60;99.90;;;;;;4975768;28;20041;-38
2021/10/09 04:42:38;;;;;;;33.42;24.65;;;10.60;99.90;;;;;;4979878;28;20122;-37
2021/10/09 04:45:04;;;;;;;32.75;24.85;;;10.60;99.90;;;;;;4973076;28;20181;-38
2021/10/09 04:47:30;;;;;;;32.55;24.48;;;10.60;99.90;;;;;;4979089;28;20194;-40
2021/10/09 04:49:55;;;;;;;33.75;25.02;;;10.50;99.90;;;;;;4990123;28;20513;-39
2021/10/09 04:52:21;;;;;;;35.10;26.00;;;10.50;99.90;;;;;;4980284;28;20366;-38
2021/10/09 04:54:46;;;;;;;32.60;24.30;;;10.40;99.90;;;;;;4990501;28;20481;-39
2021/10/09 04:57:12;;;;;;;35.42;25.65;;;10.40;99.90;;;;;;4978832;28;20541;-39
2021/10/09 04:59:37;;;;;;;34.67;25.70;;;10.40;99.90;;;;;;4990160;28;20022;-38
2021/10/09 05:02:03;;;;;;;35.85;26.60;;;10.40;99.90;;;;;;4977699;28;20585;-38
2021/10/09 05:04:28;;;;;;;34.92;25.95;;;10.40;99.90;;;;;;4990246;28;20109;-39
2021/10/09 05:06:54;;;;;;;36.97;25.33;;;10.40;99.90;;;;;;4979750;28;20019;-45
2021/10/09 05:09:19;;;;;;;36.72;27.55;;;10.30;99.90;;;;;;4988541;28;20030;-39
2021/10/09 05:11:45;;;;;;;35.25;26.52;;;10.30;99.90;;;;;;4982240;28;20019;-39
2021/10/09 05:14:10;;;;;;;34.70;25.65;;;10.30;99.90;;;;;;4986529;28;20027;-41
2021/10/09 05:16:36;;;;;;;35.47;26.88;;;10.30;99.90;;;;;;4984418;28;20772;-41
2021/10/09 05:19:02;;;;;;;35.75;26.83;;;10.30;99.90;;;;;;4983383;28;20081;-43
2021/10/09 05:21:28;;;;;;;38.38;27.45;;;10.30;99.90;;;;;;4986635;28;20504;-38
2021/10/09 05:23:53;;;;;;;37.45;27.30;;;10.20;99.90;;;;;;4980683;28;20042;-39
2021/10/09 05:26:19;;;;;;;39.13;27.67;;;10.20;99.90;;;;;;4987197;28;20022;-41
2021/10/09 05:28:47;;;;;;;38.20;27.05;;;10.20;99.90;;;;;;4980924;28;20027;-40
2021/10/09 05:31:26;;;;;;;37.38;26.45;;;10.20;99.90;;;;;;4971881;28;20031;-39
2021/10/09 05:33:53;;;;;;;41.53;28.25;;;10.20;99.90;;;;;;4981472;28;20026;-38
2021/10/09 05:36:19;;;;;;;38.58;26.52;;;10.20;99.90;;;;;;4986983;28;20148;-43
2021/10/09 05:38:45;;;;;;;39.17;27.92;;;10.20;99.90;;;;;;4978300;28;20050;-40
2021/10/09 05:41:10;;;;;;;41.55;28.20;;;10.20;99.90;;;;;;4990351;28;20077;-44
2021/10/09 05:43:36;;;;;;;41.13;27.90;;;10.10;99.90;;;;;;4975994;28;20049;-39
2021/10/09 05:46:02;;;;;;;41.10;28.10;;;10.10;99.90;;;;;;4990115;28;20030;-42
2021/10/09 05:48:28;;;;;;;37.10;27.58;;;10.10;99.90;;;;;;4977111;28;20038;-40
2021/10/09 05:51:01;;;;;;;37.60;26.33;;;10.10;99.90;;;;;;4989090;28;20027;-40
2021/10/09 05:55:59;;;;;;;37.88;25.95;;;10.10;99.90;;;;;;4988347;28;20433;-42
2021/10/09 06:50:06;;;;;;;34.20;25.10;;;10.10;99.90;;;;;;4973937;28;20026;-41
2021/10/09 07:00:44;;;;;;;43.20;30.13;;;10.20;99.90;;;;;;4978909;28;20072;-39
2021/10/09 07:03:10;;;;;;;42.58;28.98;;;10.20;99.90;;;;;;4969912;28;20070;-40
2021/10/09 07:05:41;;;;;;;40.03;29.55;;;10.20;99.90;;;;;;4976573;28;20038;-38
2021/10/09 07:08:09;;;;;;;35.17;25.50;;;10.20;99.90;;;;;;4971730;28;20027;-39
2021/10/09 07:10:38;;;;;;;36.67;27.58;;;10.20;99.90;;;;;;4975135;28;20140;-39
2021/10/09 07:13:04;;;;;;;41.10;29.98;;;10.30;99.90;;;;;;4973948;28;20022;-39
2021/10/09 07:15:29;;;;;;;38.47;28.25;;;10.30;99.90;;;;;;4971981;28;20023;-39
2021/10/09 07:17:58;;;;;;;42.63;29.30;;;10.30;99.90;;;;;;4977302;28;20054;-39
2021/10/09 07:20:24;;;;;;;38.78;28.95;;;10.40;99.90;;;;;;4971023;28;20034;-42
2021/10/09 07:22:49;;;;;;;36.95;27.02;;;10.40;99.90;;;;;;4977604;28;20046;-38
2021/10/09 07:25:16;;;;;;;40.22;28.35;;;10.40;99.90;;;;;;4970776;28;20022;-41
2021/10/09 07:27:41;;;;;;;39.53;28.23;;;10.40;99.90;;;;;;4981575;28;20465;-40
2021/10/09 07:30:08;;;;;;;38.85;28.83;;;10.40;99.90;;;;;;4968759;28;20034;-43
2021/10/09 07:32:34;;;;;;;41.05;30.25;;;10.40;99.90;;;;;;4979673;28;20431;-42
2021/10/09 07:35:00;;;;;;;40.20;28.58;;;10.50;99.90;;;;;;4974376;28;20429;-38
2021/10/09 07:37:25;;;;;;;38.38;27.30;;;10.50;99.90;;;;;;4974981;28;20037;-40
2021/10/09 07:39:51;;;;;;;34.38;25.27;;;10.50;99.90;;;;;;4978520;28;20034;-41
2021/10/09 07:42:16;;;;;;;32.75;23.38;;;10.50;99.90;;;;;;4976518;28;20027;-38
2021/10/09 07:44:42;;;;;;;33.90;25.38;;;10.60;99.90;;;;;;4980140;28;20069;-40
2021/10/09 07:47:09;;;;;;;30.45;24.67;;;10.60;99.90;;;;;;4978269;28;20110;-40
2021/10/09 07:49:35;;;;;;;29.90;22.40;;;10.60;99.90;;;;;;4984456;28;20038;-39
2021/10/09 07:52:01;;;;;;;33.13;23.70;;;10.60;99.90;;;;;;4980196;28;20027;-41
2021/10/09 07:54:26;;;;;;;34.53;25.00;;;10.70;99.90;;;;;;4982105;28;20069;-37
2021/10/09 07:56:52;;;;;;;34.08;25.25;;;10.70;99.90;;;;;;4983557;28;20031;-38
2021/10/09 07:59:17;;;;;;;31.90;24.65;;;10.70;99.90;;;;;;4979717;28;20458;-39
2021/10/09 08:01:43;;;;;;;31.13;22.50;;;10.70;99.90;;;;;;4983722;28;20828;-39
2021/10/09 08:04:10;;;;;;;30.77;22.92;;;10.70;99.90;;;;;;4976775;28;20053;-39
2021/10/09 08:06:36;;;;;;;32.85;25.48;;;10.70;99.90;;;;;;4983812;28;20027;-37
2021/10/09 08:09:02;;;;;;;36.38;27.67;;;10.70;99.90;;;;;;4976050;28;20053;-38
2021/10/09 08:11:28;;;;;;;35.92;26.15;;;10.70;99.90;;;;;;4984221;28;20032;-39
2021/10/09 08:13:53;;;;;;;32.17;24.45;;;10.70;99.90;;;;;;4981080;28;20046;-39
2021/10/09 08:16:19;;;;;;;37.35;26.05;;;10.70;99.90;;;;;;4968685;28;20031;-40
2021/10/09 08:18:44;;;;;;;34.63;25.83;;;10.70;99.90;;;;;;4976690;28;20039;-37
2021/10/09 08:21:10;;;;;;;29.88;22.80;;;10.70;99.90;;;;;;4977091;28;20033;-40
2021/10/09 08:23:47;;;;;;;33.80;24.80;;;10.60;99.90;;;;;;4976063;28;20034;-40
2021/10/09 08:39:33;;;;;;;33.35;24.70;;;10.70;99.90;;;;;;4978675;28;20023;-39
2021/10/09 08:41:59;;;;;;;34.50;24.08;;;10.70;99.90;;;;;;4968566;28;20476;-40
2021/10/09 08:44:25;;;;;;;33.10;24.20;;;10.80;99.90;;;;;;4979651;28;20117;-38
2021/10/09 08:46:50;;;;;;;33.40;24.55;;;10.80;99.90;;;;;;4967055;28;20030;-37
2021/10/09 08:49:16;;;;;;;33.13;23.60;;;10.80;99.90;;;;;;4976735;28;20034;-40
2021/10/09 08:51:42;;;;;;;31.55;24.17;;;10.90;99.90;;;;;;4987331;28;20358;-40
2021/10/09 08:54:10;;;;;;;34.17;23.60;;;10.90;99.90;;;;;;4986554;28;20030;-39
2021/10/09 08:56:45;;;;;;;33.00;25.10;;;11.00;99.90;;;;;;4975565;28;20031;-37
2021/10/09 08:59:30;;;;;;;32.80;23.50;;;11.00;99.90;;;;;;4977773;28;20109;-40
2021/10/09 09:02:21;;;;;;;32.13;22.98;;;11.00;99.90;;;;;;4973290;28;20077;-38
2021/10/09 09:04:56;;;;;;;32.75;24.42;;;11.10;99.90;;;;;;4979530;28;20127;-40
2021/10/09 09:07:41;;;;;;;37.45;25.80;;;11.10;99.90;;;;;;4977853;28;20734;-39
2021/10/09 09:27:55;;;;;;;39.72;29.40;;;11.30;99.90;;;;;;4975728;28;20125;-41
2021/10/09 09:41:20;;;;;;;35.97;26.75;;;11.40;99.90;;;;;;4958082;28;20437;-42
2021/10/09 09:43:46;;;;;;;33.05;25.67;;;11.40;99.90;;;;;;4969564;28;20042;-44
2021/10/09 09:46:15;;;;;;;33.38;25.60;;;11.50;99.90;;;;;;4980598;28;20033;-42
2021/10/09 09:48:46;;;;;;;30.92;24.88;;;11.50;99.90;;;;;;4971867;28;20102;-39
2021/10/09 09:51:13;;;;;;;31.67;24.35;;;11.60;99.90;;;;;;4978479;28;20026;-44
2021/10/09 09:53:40;;;;;;;28.60;22.50;;;11.60;99.90;;;;;;4973096;28;20425;-39
2021/10/09 09:56:10;;;;;;;30.77;23.60;;;11.70;99.90;;;;;;4977085;28;20504;-38
2021/10/09 09:58:41;;;;;;;30.63;23.52;;;11.70;99.90;;;;;;4974275;28;20031;-39
2021/10/09 10:01:08;;;;;;;28.00;21.98;;;11.80;99.90;;;;;;4975649;28;20402;-42
2021/10/09 10:03:35;;;;;;;30.02;22.67;;;11.80;99.90;;;;;;4975463;28;20074;-41
2021/10/09 10:06:04;;;;;;;30.77;23.48;;;11.90;99.90;;;;;;4972504;28;20027;-43
2021/10/09 10:08:30;;;;;;;28.65;21.00;;;11.90;99.90;;;;;;4978371;28;20039;-37
2021/10/09 10:10:57;;;;;;;30.83;23.83;;;11.90;99.90;;;;;;4970979;28;20023;-39
2021/10/09 10:13:29;;;;;;;29.83;23.30;;;12.00;99.90;;;;;;4980418;28;20201;-39
2021/10/09 10:15:55;;;;;;;;;;;12.00;99.90;;;;;;4972035;28;20030;-39
2021/10/09 10:18:48;;;;;;;34.70;23.65;;;12.00;99.90;;;;;;4980003;28;20353;-39
2021/10/09 10:21:15;;;;;;;33.03;23.53;;;12.00;99.90;;;;;;4971220;28;20062;-40
2021/10/09 10:23:43;;;;;;;32.17;23.23;;;12.10;99.90;;;;;;4980295;28;20819;-39
2021/10/09 10:26:18;;;;;;;32.10;23.13;;;12.10;99.90;;;;;;4971083;28;20394;-39
2021/10/09 10:28:44;;;;;;;29.85;22.35;;;12.10;99.90;;;;;;4979984;28;20049;-39
2021/10/09 10:31:10;;;;;;;28.75;23.00;;;12.10;99.90;;;;;;4970777;28;20098;-38
2021/10/09 10:33:43;;;;;;;27.50;20.20;;;12.20;99.90;;;;;;4979861;28;20438;-39
2021/10/09 10:36:12;;;;;;;26.25;19.80;;;12.30;99.90;;;;;;4981987;28;20023;-45
2021/10/09 10:38:45;;;;;;;28.75;21.05;;;12.30;99.90;;;;;;4981045;28;20019;-39
2021/10/09 10:41:16;;;;;;;30.90;22.17;;;12.30;99.90;;;;;;4968910;28;20023;-40
2021/10/09 10:43:51;;;;;;;30.85;23.80;;;12.40;99.90;;;;;;4981054;28;20042;-40
2021/10/09 10:46:28;;;;;;;30.92;22.60;;;12.40;99.90;;;;;;4968980;28;20026;-38
2021/10/09 10:49:19;;;;;;;30.65;21.70;;;12.50;99.90;;;;;;4973998;28;20031;-36
2021/10/09 10:52:09;;;;;;;27.00;20.20;;;12.50;99.90;;;;;;4979320;28;20049;-42
2021/10/09 10:54:36;;;;;;;25.73;20.38;;;12.60;99.90;;;;;;4977930;28;20500;-40
2021/10/09 10:57:02;;;;;;;27.52;21.23;;;12.60;99.90;;;;;;4980923;28;20034;-38
2021/10/09 10:59:55;;;;;;;28.58;22.45;;;12.70;99.90;;;;;;4976282;28;20041;-38
2021/10/09 11:02:47;;;;;;;26.33;20.00;;;12.80;99.90;;;;;;4974349;28;20042;-38
2021/10/09 11:05:14;;;;;;;29.58;20.58;;;12.80;99.90;;;;;;4978090;28;20046;-42
2021/10/09 11:07:42;;;;;;;26.92;20.27;;;12.80;99.90;;;;;;4986490;28;20018;-38
2021/10/09 11:10:14;;;;;;;27.77;20.25;;;12.90;99.90;;;;;;4977434;28;20073;-37
2021/10/09 11:12:50;;;;;;;25.42;19.27;;;12.90;99.90;;;;;;4982950;28;20027;-39
2021/10/09 11:15:22;;;;;;;28.98;19.95;;;13.00;99.90;;;;;;4977179;28;20519;-39
2021/10/09 11:17:56;;;;;;;27.63;20.23;;;13.00;99.90;;;;;;4972537;28;20039;-37
2021/10/09 11:20:27;;;;;;;27.98;21.73;;;13.00;99.90;;;;;;4979596;28;20035;-40
2021/10/09 11:22:55;;;;;;;24.73;19.52;;;13.10;99.90;;;;;;4969458;28;20034;-38
2021/10/09 11:25:26;;;;;;;30.27;21.92;;;13.10;99.90;;;;;;4979455;28;20069;-39
2021/10/09 11:27:53;;;;;;;29.88;21.95;;;13.20;99.90;;;;;;4964856;28;20590;-36
2021/10/09 11:30:18;;;;;;;25.85;19.73;;;13.20;99.90;;;;;;4978538;28;20027;-40
2021/10/09 11:32:44;;;;;;;27.63;20.08;;;13.20;99.90;;;;;;4974654;28;20027;-38
2021/10/09 11:35:12;;;;;;;25.25;18.95;;;13.30;99.90;;;;;;4975149;28;20236;-40
2021/10/09 11:37:49;;;;;;;25.02;18.00;;;13.40;99.90;;;;;;4976118;28;20030;-41
2021/10/09 11:40:26;;;;;;;24.58;18.08;;;13.40;99.90;;;;;;4972312;28;20113;-38
2021/10/09 11:42:56;;;;;;;25.38;18.42;;;13.50;99.90;;;;;;4967746;28;20031;-40
2021/10/09 11:45:27;;;;;;;26.75;18.90;;;13.50;99.90;;;;;;4979412;28;20045;-38
2021/10/09 11:53:37;;;;;;;27.80;19.17;;;13.70;99.90;;;;;;4968376;28;20094;-38
2021/10/09 11:56:06;;;;;;;21.80;17.63;;;13.70;99.90;;;;;;4975786;28;20069;-39
2021/10/09 11:58:32;;;;;;;22.92;16.77;;;13.80;99.90;;;;;;4986202;28;20061;-39
2021/10/09 12:00:58;;;;;;;21.83;16.23;;;13.80;99.90;;;;;;4975022;28;20072;-38
2021/10/09 12:03:26;;;;;;;21.85;16.92;;;13.90;99.90;;;;;;4967406;28;20043;-40
2021/10/09 12:06:00;;;;;;;22.20;17.23;;;13.90;99.90;;;;;;4971870;28;20058;-40
2021/10/09 12:08:27;;;;;;;24.98;18.75;;;13.90;99.90;;;;;;4985812;28;20481;-38
2021/10/09 12:11:14;;;;;;;24.92;18.02;;;14.00;99.90;;;;;;4976764;28;20030;-40
2021/10/09 12:14:03;;;;;;;24.00;18.30;;;14.00;99.90;;;;;;4976688;28;20373;-38
2021/10/09 12:16:34;;;;;;;22.73;17.20;;;14.10;99.90;;;;;;4979538;28;20037;-38
2021/10/09 12:19:12;;;;;;;24.10;17.77;;;14.10;99.90;;;;;;4982470;28;20109;-37
2021/10/09 12:21:49;;;;;;;21.17;17.23;;;14.10;99.90;;;;;;4983154;28;20038;-38
2021/10/09 12:24:25;;;;;;;25.20;18.13;;;14.20;99.90;;;;;;4968518;28;20053;-37
2021/10/09 12:27:06;;;;;;;21.90;17.45;;;14.20;99.90;;;;;;4983116;28;20114;-37
2021/10/09 12:29:35;;;;;;;24.58;17.55;;;14.20;99.90;;;;;;4978546;28;20085;-39
2021/10/09 12:32:19;;;;;;;22.98;16.75;;;14.30;99.90;;;;;;4984378;28;20101;-40
2021/10/09 12:34:45;;;;;;;17.90;14.00;;;14.30;99.90;;;;;;4971790;28;20366;-38
2021/10/09 12:37:24;;;;;;;22.73;16.42;;;14.40;99.90;;;;;;4978328;28;20038;-38
2021/10/09 12:40:11;;;;;;;22.58;16.55;;;14.40;99.90;;;;;;4970419;28;20019;-39
2021/10/09 12:42:37;;;;;;;21.77;16.35;;;14.50;99.90;;;;;;4982601;28;20042;-40
2021/10/09 12:45:04;;;;;;;25.73;17.13;;;14.50;99.90;;;;;;4971818;28;20113;-39
2021/10/09 12:47:29;;;;;;;23.73;17.75;;;14.50;99.90;;;;;;4982514;28;20540;-39
2021/10/09 12:49:55;;;;;;;22.98;16.77;;;14.60;99.90;;;;;;4972665;28;20023;-39
2021/10/09 12:52:21;;;;;;;21.52;16.42;;;14.60;99.90;;;;;;4980719;28;20026;-38
2021/10/09 12:54:46;;;;;;;21.10;15.57;;;14.60;99.90;;;;;;4973023;28;20038;-38
2021/10/09 12:57:12;;;;;;;22.60;16.55;;;14.60;99.90;;;;;;4977664;28;20049;-41
2021/10/09 12:59:37;;;;;;;15.68;13.45;;;14.70;99.90;;;;;;4975276;28;20175;-40
2021/10/09 13:02:03;;;;;;;21.42;15.63;;;14.70;99.90;;;;;;4975184;28;20026;-40
2021/10/09 13:04:29;;;;;;;25.48;17.10;;;14.70;99.90;;;;;;4978901;28;20057;-41
2021/10/09 13:06:55;;;;;;;21.50;16.70;;;14.70;99.90;;;;;;4971532;28;20501;-40
2021/10/09 13:09:21;;;;;;;22.30;16.88;;;14.80;99.90;;;;;;4981455;28;20042;-39
2021/10/09 13:11:58;;;;;;;18.15;15.00;;;14.80;99.90;;;;;;4972122;28;20019;-39
2021/10/09 13:14:24;;;;;;;22.48;16.33;;;14.90;99.90;;;;;;4980860;28;20027;-40
2021/10/09 13:16:50;;;;;;;23.02;16.80;;;14.90;99.90;;;;;;4972182;28;20027;-39
2021/10/09 13:19:15;;;;;;;22.33;17.42;;;14.90;99.90;;;;;;4982144;28;20027;-41
2021/10/09 13:21:41;;;;;;;20.58;16.02;;;15.00;99.90;;;;;;4969936;28;20434;-39
2021/10/09 13:24:07;;;;;;;21.10;15.80;;;15.00;99.90;;;;;;4983204;28;20498;-40
2021/10/09 13:26:32;;;;;;;22.88;16.92;;;15.00;99.90;;;;;;4970421;28;20489;-40
2021/10/09 13:28:59;;;;;;;20.95;16.33;;;15.00;99.90;;;;;;4972460;28;20520;-42
2021/10/09 13:31:25;;;;;;;19.95;15.88;;;15.00;99.90;;;;;;4990169;28;20022;-41
2021/10/09 13:33:52;;;;;;;20.33;15.77;;;15.10;99.90;;;;;;4980101;28;20019;-38
2021/10/09 13:36:18;;;;;;;23.73;15.98;;;15.10;99.90;;;;;;4976831;28;20086;-42
2021/10/09 13:38:44;;;;;;;21.13;14.40;;;15.10;99.90;;;;;;4977641;28;20507;-40
2021/10/09 13:41:11;;;;;;;18.73;14.85;;;15.20;99.90;;;;;;4975041;28;20478;-38
2021/10/09 13:43:37;;;;;;;18.80;14.02;;;15.20;99.90;;;;;;4974202;28;20394;-43
2021/10/09 13:46:02;;;;;;;20.35;14.90;;;15.20;99.90;;;;;;4981779;28;20034;-43
2021/10/09 13:48:28;;;;;;;21.63;15.15;;;15.30;99.90;;;;;;4984995;28;20042;-38
2021/10/09 13:50:53;;;;;;;18.75;14.00;;;15.30;99.90;;;;;;4979019;28;20027;-39
2021/10/09 13:53:20;;;;;;;19.23;14.77;;;15.30;99.90;;;;;;4971489;28;20031;-37
2021/10/09 13:55:46;;;;;;;24.85;16.23;;;15.30;99.90;;;;;;4975877;28;20277;-38
2021/10/09 13:58:13;;;;;;;18.60;14.35;;;15.40;99.90;;;;;;4987253;28;20047;-41
2021/10/09 14:00:40;;;;;;;17.58;13.57;;;15.40;99.90;;;;;;4979875;28;20041;-42
2021/10/09 14:03:06;;;;;;;21.75;13.68;;;15.40;99.90;;;;;;4969771;28;20550;-38
2021/10/09 14:05:33;;;;;;;18.73;13.82;;;15.40;99.90;;;;;;4975914;28;20743;-39
2021/10/09 14:07:58;;;;;;;18.92;14.57;;;15.50;99.90;;;;;;4986401;28;20739;-38
2021/10/09 14:10:24;;;;;;;17.70;13.75;;;15.50;99.90;;;;;;4980829;28;20030;-41
2021/10/09 14:12:49;;;;;;;18.42;13.68;;;15.50;99.90;;;;;;4969408;28;20019;-39
2021/10/09 14:15:15;;;;;;;20.23;15.13;;;15.50;99.90;;;;;;4972533;28;20668;-38
2021/10/09 14:17:41;;;;;;;17.85;13.52;;;15.50;99.90;;;;;;4969099;28;20037;-38
2021/10/09 14:20:08;;;;;;;17.85;14.07;;;15.60;99.90;;;;;;4976732;28;20035;-40
2021/10/09 14:22:35;;;;;;;17.30;13.73;;;15.60;99.90;;;;;;4972733;28;20030;-39
2021/10/09 14:25:02;;;;;;;19.10;13.63;;;15.60;99.90;;;;;;4974502;28;20608;-41
2021/10/09 14:27:28;;;;;;;17.02;13.60;;;15.60;99.90;;;;;;4975120;28;20031;-38
2021/10/09 14:29:55;;;;;;;17.85;13.43;;;15.60;99.90;;;;;;4976007;28;20355;-41
2021/10/09 14:32:20;;;;;;;18.55;13.27;;;15.60;99.90;;;;;;4979305;28;20148;-38